sensor_id;sensor_type;location;lat;lon;timestamp;P1;durP1;ratioP1;P2;durP2;ratioP2
22111;SDS011;11222;50.872;4.312;2023-04-06T00:01:06;21.50;;;13.27;;
22111;SDS011;11222;50.872;4.312;2023-04-06T00:03:32;21.98;;;12.70;;
22111;SDS011;11222;50.872;4.312;2023-04-06T00:05:58;26.67;;;13.27;;
22111;SDS011;11222;50.872;4.312;2023-04-06T00:08:23;22.35;;;14.10;;
22111;SDS011;11222;50.872;4.312;2023-04-06T00:10:50;27.70;;;13.68;;
22111;SDS011;11222;50.872;4.312;2023-04-06T00:13:16;23.70;;;13.10;;
22111;SDS011;11222;50.872;4.312;2023-04-06T00:15:42;24.35;;;13.73;;
22111;SDS011;11222;50.872;4.312;2023-04-06T00:18:07;25.02;;;13.52;;
22111;SDS011;11222;50.872;4.312;2023-04-06T00:20:33;24.23;;;13.07;;
22111;SDS011;11222;50.872;4.312;2023-04-06T00:22:59;21.67;;;13.48;;
22111;SDS011;11222;50.872;4.312;2023-04-06T00:25:25;24.10;;;14.07;;
22111;SDS011;11222;50.872;4.312;2023-04-06T00:27:50;21.13;;;13.02;;
22111;SDS011;11222;50.872;4.312;2023-04-06T00:30:16;20.33;;;13.50;;
22111;SDS011;11222;50.872;4.312;2023-04-06T00:32:42;23.38;;;13.25;;
22111;SDS011;11222;50.872;4.312;2023-04-06T00:35:08;21.55;;;13.32;;
22111;SDS011;11222;50.872;4.312;2023-04-06T00:37:34;21.90;;;13.88;;
22111;SDS011;11222;50.872;4.312;2023-04-06T00:40:00;23.48;;;14.35;;
22111;SDS011;11222;50.872;4.312;2023-04-06T00:42:26;20.50;;;13.82;;
22111;SDS011;11222;50.872;4.312;2023-04-06T00:44:55;24.75;;;14.00;;
22111;SDS011;11222;50.872;4.312;2023-04-06T00:47:22;21.40;;;13.68;;
22111;SDS011;11222;50.872;4.312;2023-04-06T00:49:50;23.83;;;14.98;;
22111;SDS011;11222;50.872;4.312;2023-04-06T00:52:17;22.13;;;12.70;;
22111;SDS011;11222;50.872;4.312;2023-04-06T00:54:43;22.65;;;13.65;;
22111;SDS011;11222;50.872;4.312;2023-04-06T00:57:08;19.13;;;13.02;;
22111;SDS011;11222;50.872;4.312;2023-04-06T00:59:35;23.48;;;14.32;;
22111;SDS011;11222;50.872;4.312;2023-04-06T01:02:00;21.45;;;13.95;;
22111;SDS011;11222;50.872;4.312;2023-04-06T01:04:26;19.45;;;13.35;;
22111;SDS011;11222;50.872;4.312;2023-04-06T01:06:52;22.10;;;13.82;;
22111;SDS011;11222;50.872;4.312;2023-04-06T01:09:18;22.15;;;14.13;;
22111;SDS011;11222;50.872;4.312;2023-04-06T01:11:44;22.65;;;13.55;;
22111;SDS011;11222;50.872;4.312;2023-04-06T01:14:09;19.52;;;12.85;;
22111;SDS011;11222;50.872;4.312;2023-04-06T01:16:35;21.20;;;13.68;;
22111;SDS011;11222;50.872;4.312;2023-04-06T01:19:07;21.38;;;14.02;;
22111;SDS011;11222;50.872;4.312;2023-04-06T01:21:33;22.88;;;14.10;;
22111;SDS011;11222;50.872;4.312;2023-04-06T01:23:59;22.73;;;13.90;;
22111;SDS011;11222;50.872;4.312;2023-04-06T01:26:25;20.23;;;13.52;;
22111;SDS011;11222;50.872;4.312;2023-04-06T01:28:51;21.35;;;13.95;;
22111;SDS011;11222;50.872;4.312;2023-04-06T01:31:17;20.20;;;13.07;;
22111;SDS011;11222;50.872;4.312;2023-04-06T01:33:42;20.35;;;13.38;;
22111;SDS011;11222;50.872;4.312;2023-04-06T01:36:08;22.02;;;13.93;;
22111;SDS011;11222;50.872;4.312;2023-04-06T01:38:34;20.27;;;13.77;;
22111;SDS011;11222;50.872;4.312;2023-04-06T01:41:00;24.90;;;14.50;;
22111;SDS011;11222;50.872;4.312;2023-04-06T01:43:26;24.50;;;14.63;;
22111;SDS011;11222;50.872;4.312;2023-04-06T01:45:51;22.63;;;14.13;;
22111;SDS011;11222;50.872;4.312;2023-04-06T01:48:17;21.33;;;14.68;;
22111;SDS011;11222;50.872;4.312;2023-04-06T01:50:43;21.40;;;13.80;;
22111;SDS011;11222;50.872;4.312;2023-04-06T01:53:09;20.55;;;13.90;;
22111;SDS011;11222;50.872;4.312;2023-04-06T01:55:35;20.88;;;13.48;;
22111;SDS011;11222;50.872;4.312;2023-04-06T01:58:00;22.23;;;13.43;;
22111;SDS011;11222;50.872;4.312;2023-04-06T02:00:26;19.30;;;13.38;;
22111;SDS011;11222;50.872;4.312;2023-04-06T02:02:52;23.40;;;13.63;;
22111;SDS011;11222;50.872;4.312;2023-04-06T02:05:19;19.70;;;13.63;;
22111;SDS011;11222;50.872;4.312;2023-04-06T02:07:45;25.60;;;15.45;;
22111;SDS011;11222;50.872;4.312;2023-04-06T02:10:14;20.88;;;13.75;;
22111;SDS011;11222;50.872;4.312;2023-04-06T02:12:40;20.60;;;13.35;;
22111;SDS011;11222;50.872;4.312;2023-04-06T02:15:06;24.23;;;14.43;;
22111;SDS011;11222;50.872;4.312;2023-04-06T02:17:32;21.13;;;13.93;;
22111;SDS011;11222;50.872;4.312;2023-04-06T02:19:58;22.33;;;13.85;;
22111;SDS011;11222;50.872;4.312;2023-04-06T02:22:23;23.10;;;14.15;;
22111;SDS011;11222;50.872;4.312;2023-04-06T02:24:49;21.50;;;13.25;;
22111;SDS011;11222;50.872;4.312;2023-04-06T02:27:15;23.00;;;13.98;;
22111;SDS011;11222;50.872;4.312;2023-04-06T02:29:41;20.65;;;13.80;;
22111;SDS011;11222;50.872;4.312;2023-04-06T02:32:06;21.60;;;13.93;;
22111;SDS011;11222;50.872;4.312;2023-04-06T02:34:32;21.17;;;14.25;;
22111;SDS011;11222;50.872;4.312;2023-04-06T02:36:58;22.58;;;13.90;;
22111;SDS011;11222;50.872;4.312;2023-04-06T02:39:24;21.73;;;13.80;;
22111;SDS011;11222;50.872;4.312;2023-04-06T02:41:50;20.65;;;13.48;;
22111;SDS011;11222;50.872;4.312;2023-04-06T02:44:15;25.52;;;13.75;;
22111;SDS011;11222;50.872;4.312;2023-04-06T02:46:41;23.40;;;13.25;;
22111;SDS011;11222;50.872;4.312;2023-04-06T02:49:07;19.85;;;14.07;;
22111;SDS011;11222;50.872;4.312;2023-04-06T02:51:33;19.65;;;12.63;;
22111;SDS011;11222;50.872;4.312;2023-04-06T02:53:59;19.83;;;13.75;;
22111;SDS011;11222;50.872;4.312;2023-04-06T02:56:24;19.58;;;13.13;;
22111;SDS011;11222;50.872;4.312;2023-04-06T02:58:51;19.33;;;12.98;;
22111;SDS011;11222;50.872;4.312;2023-04-06T03:01:17;23.65;;;13.65;;
22111;SDS011;11222;50.872;4.312;2023-04-06T03:03:42;23.70;;;13.18;;
22111;SDS011;11222;50.872;4.312;2023-04-06T03:06:08;21.17;;;13.10;;
22111;SDS011;11222;50.872;4.312;2023-04-06T03:08:34;23.08;;;14.15;;
22111;SDS011;11222;50.872;4.312;2023-04-06T03:11:00;23.20;;;13.23;;
22111;SDS011;11222;50.872;4.312;2023-04-06T03:13:26;25.35;;;13.25;;
22111;SDS011;11222;50.872;4.312;2023-04-06T03:15:51;18.23;;;12.65;;
22111;SDS011;11222;50.872;4.312;2023-04-06T03:18:20;20.95;;;13.70;;
22111;SDS011;11222;50.872;4.312;2023-04-06T03:20:47;22.35;;;13.60;;
22111;SDS011;11222;50.872;4.312;2023-04-06T03:23:13;22.27;;;12.88;;
22111;SDS011;11222;50.872;4.312;2023-04-06T03:25:39;18.98;;;12.57;;
22111;SDS011;11222;50.872;4.312;2023-04-06T03:28:04;19.60;;;12.63;;
22111;SDS011;11222;50.872;4.312;2023-04-06T03:30:30;23.40;;;13.43;;
22111;SDS011;11222;50.872;4.312;2023-04-06T03:32:56;20.75;;;13.00;;
22111;SDS011;11222;50.872;4.312;2023-04-06T03:35:22;20.05;;;13.05;;
22111;SDS011;11222;50.872;4.312;2023-04-06T03:37:48;20.58;;;13.70;;
22111;SDS011;11222;50.872;4.312;2023-04-06T03:40:14;20.35;;;13.32;;
22111;SDS011;11222;50.872;4.312;2023-04-06T03:42:40;23.98;;;13.30;;
22111;SDS011;11222;50.872;4.312;2023-04-06T03:45:06;27.02;;;13.60;;
22111;SDS011;11222;50.872;4.312;2023-04-06T03:47:32;22.35;;;12.98;;
22111;SDS011;11222;50.872;4.312;2023-04-06T03:49:57;25.88;;;13.02;;
22111;SDS011;11222;50.872;4.312;2023-04-06T03:52:23;24.98;;;14.45;;
22111;SDS011;11222;50.872;4.312;2023-04-06T03:54:49;21.90;;;12.77;;
22111;SDS011;11222;50.872;4.312;2023-04-06T03:57:15;24.40;;;13.95;;
22111;SDS011;11222;50.872;4.312;2023-04-06T03:59:40;25.20;;;14.38;;
22111;SDS011;11222;50.872;4.312;2023-04-06T04:02:06;30.95;;;20.75;;
22111;SDS011;11222;50.872;4.312;2023-04-06T04:04:32;24.73;;;13.88;;
22111;SDS011;11222;50.872;4.312;2023-04-06T04:06:57;34.53;;;14.43;;
22111;SDS011;11222;50.872;4.312;2023-04-06T04:09:23;26.63;;;14.05;;
22111;SDS011;11222;50.872;4.312;2023-04-06T04:11:49;23.17;;;13.60;;
22111;SDS011;11222;50.872;4.312;2023-04-06T04:14:15;21.13;;;13.77;;
22111;SDS011;11222;50.872;4.312;2023-04-06T04:16:40;21.65;;;13.82;;
22111;SDS011;11222;50.872;4.312;2023-04-06T04:19:06;21.75;;;13.77;;
22111;SDS011;11222;50.872;4.312;2023-04-06T04:21:32;21.20;;;13.15;;
22111;SDS011;11222;50.872;4.312;2023-04-06T04:23:58;25.55;;;13.85;;
22111;SDS011;11222;50.872;4.312;2023-04-06T04:26:24;20.40;;;14.05;;
22111;SDS011;11222;50.872;4.312;2023-04-06T04:28:49;21.63;;;14.60;;
22111;SDS011;11222;50.872;4.312;2023-04-06T04:31:15;24.90;;;14.48;;
22111;SDS011;11222;50.872;4.312;2023-04-06T04:33:43;24.67;;;14.93;;
22111;SDS011;11222;50.872;4.312;2023-04-06T04:36:09;21.30;;;14.05;;
22111;SDS011;11222;50.872;4.312;2023-04-06T04:38:35;24.08;;;13.98;;
22111;SDS011;11222;50.872;4.312;2023-04-06T04:41:01;23.27;;;14.27;;
22111;SDS011;11222;50.872;4.312;2023-04-06T04:43:26;23.95;;;14.18;;
22111;SDS011;11222;50.872;4.312;2023-04-06T04:45:52;23.40;;;13.95;;
22111;SDS011;11222;50.872;4.312;2023-04-06T04:48:18;22.40;;;14.23;;
22111;SDS011;11222;50.872;4.312;2023-04-06T04:50:43;26.35;;;14.25;;
22111;SDS011;11222;50.872;4.312;2023-04-06T04:53:09;23.25;;;14.30;;
22111;SDS011;11222;50.872;4.312;2023-04-06T04:55:35;22.50;;;14.60;;
22111;SDS011;11222;50.872;4.312;2023-04-06T04:58:01;23.35;;;15.30;;
22111;SDS011;11222;50.872;4.312;2023-04-06T05:00:27;24.30;;;15.00;;
22111;SDS011;11222;50.872;4.312;2023-04-06T05:02:53;22.23;;;14.90;;
22111;SDS011;11222;50.872;4.312;2023-04-06T05:05:19;24.90;;;15.43;;
22111;SDS011;11222;50.872;4.312;2023-04-06T05:07:44;24.52;;;15.07;;
22111;SDS011;11222;50.872;4.312;2023-04-06T05:10:10;28.52;;;15.93;;
22111;SDS011;11222;50.872;4.312;2023-04-06T05:12:37;22.50;;;14.93;;
22111;SDS011;11222;50.872;4.312;2023-04-06T05:15:03;25.52;;;16.00;;
22111;SDS011;11222;50.872;4.312;2023-04-06T05:17:29;23.58;;;15.18;;
22111;SDS011;11222;50.872;4.312;2023-04-06T05:19:56;24.83;;;15.43;;
22111;SDS011;11222;50.872;4.312;2023-04-06T05:22:21;26.33;;;15.68;;
22111;SDS011;11222;50.872;4.312;2023-04-06T05:24:47;27.42;;;17.15;;
22111;SDS011;11222;50.872;4.312;2023-04-06T05:27:13;24.73;;;15.68;;
22111;SDS011;11222;50.872;4.312;2023-04-06T05:29:39;24.73;;;16.35;;
22111;SDS011;11222;50.872;4.312;2023-04-06T05:32:06;24.02;;;16.50;;
22111;SDS011;11222;50.872;4.312;2023-04-06T05:34:37;24.15;;;16.88;;
22111;SDS011;11222;50.872;4.312;2023-04-06T05:37:06;28.30;;;16.10;;
22111;SDS011;11222;50.872;4.312;2023-04-06T05:39:31;27.20;;;16.60;;
22111;SDS011;11222;50.872;4.312;2023-04-06T05:41:57;25.50;;;16.67;;
22111;SDS011;11222;50.872;4.312;2023-04-06T05:44:23;30.02;;;17.95;;
22111;SDS011;11222;50.872;4.312;2023-04-06T05:46:48;34.30;;;17.60;;
22111;SDS011;11222;50.872;4.312;2023-04-06T05:49:14;27.92;;;17.88;;
22111;SDS011;11222;50.872;4.312;2023-04-06T05:51:40;32.20;;;17.15;;
22111;SDS011;11222;50.872;4.312;2023-04-06T05:54:06;32.00;;;16.48;;
22111;SDS011;11222;50.872;4.312;2023-04-06T05:56:31;29.25;;;16.90;;
22111;SDS011;11222;50.872;4.312;2023-04-06T05:58:57;30.75;;;17.75;;
22111;SDS011;11222;50.872;4.312;2023-04-06T06:01:23;26.17;;;16.17;;
22111;SDS011;11222;50.872;4.312;2023-04-06T06:03:48;30.10;;;16.27;;
22111;SDS011;11222;50.872;4.312;2023-04-06T06:06:14;30.02;;;17.42;;
22111;SDS011;11222;50.872;4.312;2023-04-06T06:08:40;32.35;;;16.67;;
22111;SDS011;11222;50.872;4.312;2023-04-06T06:11:05;28.15;;;16.52;;
22111;SDS011;11222;50.872;4.312;2023-04-06T06:13:31;28.92;;;18.00;;
22111;SDS011;11222;50.872;4.312;2023-04-06T06:15:57;29.65;;;16.98;;
22111;SDS011;11222;50.872;4.312;2023-04-06T06:18:23;31.90;;;17.63;;
22111;SDS011;11222;50.872;4.312;2023-04-06T06:20:48;27.00;;;17.05;;
22111;SDS011;11222;50.872;4.312;2023-04-06T06:23:14;26.10;;;17.77;;
22111;SDS011;11222;50.872;4.312;2023-04-06T06:25:40;25.83;;;17.60;;
22111;SDS011;11222;50.872;4.312;2023-04-06T06:28:06;25.90;;;16.80;;
22111;SDS011;11222;50.872;4.312;2023-04-06T06:30:31;30.15;;;17.95;;
22111;SDS011;11222;50.872;4.312;2023-04-06T06:32:57;29.40;;;18.67;;
22111;SDS011;11222;50.872;4.312;2023-04-06T06:35:23;29.33;;;19.02;;
22111;SDS011;11222;50.872;4.312;2023-04-06T06:37:49;29.48;;;18.85;;
22111;SDS011;11222;50.872;4.312;2023-04-06T06:40:15;29.65;;;19.77;;
22111;SDS011;11222;50.872;4.312;2023-04-06T06:42:42;33.10;;;18.95;;
22111;SDS011;11222;50.872;4.312;2023-04-06T06:45:08;32.10;;;19.60;;
22111;SDS011;11222;50.872;4.312;2023-04-06T06:47:34;27.50;;;18.38;;
22111;SDS011;11222;50.872;4.312;2023-04-06T06:50:00;32.92;;;20.65;;
22111;SDS011;11222;50.872;4.312;2023-04-06T06:52:28;32.00;;;19.55;;
22111;SDS011;11222;50.872;4.312;2023-04-06T06:54:53;35.72;;;19.45;;
22111;SDS011;11222;50.872;4.312;2023-04-06T06:57:19;34.80;;;19.40;;
22111;SDS011;11222;50.872;4.312;2023-04-06T06:59:45;31.77;;;20.25;;
22111;SDS011;11222;50.872;4.312;2023-04-06T07:02:11;31.77;;;19.73;;
22111;SDS011;11222;50.872;4.312;2023-04-06T07:04:36;33.60;;;19.20;;
22111;SDS011;11222;50.872;4.312;2023-04-06T07:07:02;31.60;;;18.98;;
22111;SDS011;11222;50.872;4.312;2023-04-06T07:09:28;31.63;;;18.27;;
22111;SDS011;11222;50.872;4.312;2023-04-06T07:11:54;28.55;;;18.33;;
22111;SDS011;11222;50.872;4.312;2023-04-06T07:14:21;29.02;;;18.10;;
22111;SDS011;11222;50.872;4.312;2023-04-06T07:16:47;27.90;;;17.13;;
22111;SDS011;11222;50.872;4.312;2023-04-06T07:19:15;29.88;;;17.65;;
22111;SDS011;11222;50.872;4.312;2023-04-06T07:21:40;29.48;;;17.80;;
22111;SDS011;11222;50.872;4.312;2023-04-06T07:24:06;29.45;;;17.98;;
22111;SDS011;11222;50.872;4.312;2023-04-06T07:26:32;30.95;;;17.80;;
22111;SDS011;11222;50.872;4.312;2023-04-06T07:28:57;29.45;;;17.23;;
22111;SDS011;11222;50.872;4.312;2023-04-06T07:31:23;29.45;;;17.85;;
22111;SDS011;11222;50.872;4.312;2023-04-06T07:33:49;27.85;;;16.45;;
22111;SDS011;11222;50.872;4.312;2023-04-06T07:36:15;28.80;;;16.60;;
22111;SDS011;11222;50.872;4.312;2023-04-06T07:38:40;27.45;;;16.52;;
22111;SDS011;11222;50.872;4.312;2023-04-06T07:41:06;27.17;;;15.95;;
22111;SDS011;11222;50.872;4.312;2023-04-06T07:43:32;25.60;;;14.45;;
22111;SDS011;11222;50.872;4.312;2023-04-06T07:45:58;29.85;;;15.60;;
22111;SDS011;11222;50.872;4.312;2023-04-06T07:48:25;21.88;;;14.45;;
22111;SDS011;11222;50.872;4.312;2023-04-06T07:50:51;24.08;;;14.52;;
22111;SDS011;11222;50.872;4.312;2023-04-06T07:53:16;23.85;;;13.68;;
22111;SDS011;11222;50.872;4.312;2023-04-06T07:55:42;24.58;;;12.93;;
22111;SDS011;11222;50.872;4.312;2023-04-06T07:58:08;19.27;;;11.70;;
22111;SDS011;11222;50.872;4.312;2023-04-06T08:00:33;17.40;;;11.18;;
22111;SDS011;11222;50.872;4.312;2023-04-06T08:02:59;18.77;;;11.23;;
22111;SDS011;11222;50.872;4.312;2023-04-06T08:05:25;18.83;;;10.63;;
22111;SDS011;11222;50.872;4.312;2023-04-06T08:07:51;16.02;;;10.70;;
22111;SDS011;11222;50.872;4.312;2023-04-06T08:10:16;20.65;;;10.75;;
22111;SDS011;11222;50.872;4.312;2023-04-06T08:12:42;19.42;;;11.00;;
22111;SDS011;11222;50.872;4.312;2023-04-06T08:15:08;17.25;;;11.55;;
22111;SDS011;11222;50.872;4.312;2023-04-06T08:17:34;17.98;;;11.50;;
22111;SDS011;11222;50.872;4.312;2023-04-06T08:20:00;20.95;;;12.45;;
22111;SDS011;11222;50.872;4.312;2023-04-06T08:22:26;16.13;;;10.75;;
22111;SDS011;11222;50.872;4.312;2023-04-06T08:24:51;15.13;;;10.35;;
22111;SDS011;11222;50.872;4.312;2023-04-06T08:27:17;16.85;;;10.75;;
22111;SDS011;11222;50.872;4.312;2023-04-06T08:29:43;17.17;;;10.65;;
22111;SDS011;11222;50.872;4.312;2023-04-06T08:32:09;15.77;;;10.75;;
22111;SDS011;11222;50.872;4.312;2023-04-06T08:34:35;18.13;;;10.77;;
22111;SDS011;11222;50.872;4.312;2023-04-06T08:37:01;17.45;;;9.95;;
22111;SDS011;11222;50.872;4.312;2023-04-06T08:39:27;16.85;;;10.65;;
22111;SDS011;11222;50.872;4.312;2023-04-06T08:41:53;16.02;;;10.27;;
22111;SDS011;11222;50.872;4.312;2023-04-06T08:44:22;15.93;;;9.05;;
22111;SDS011;11222;50.872;4.312;2023-04-06T08:46:49;16.95;;;9.52;;
22111;SDS011;11222;50.872;4.312;2023-04-06T08:49:15;15.82;;;9.57;;
22111;SDS011;11222;50.872;4.312;2023-04-06T08:51:41;14.75;;;9.10;;
22111;SDS011;11222;50.872;4.312;2023-04-06T08:54:07;14.73;;;10.00;;
22111;SDS011;11222;50.872;4.312;2023-04-06T08:56:36;15.98;;;9.95;;
22111;SDS011;11222;50.872;4.312;2023-04-06T08:59:03;14.88;;;8.63;;
22111;SDS011;11222;50.872;4.312;2023-04-06T09:01:29;17.52;;;10.73;;
22111;SDS011;11222;50.872;4.312;2023-04-06T09:03:58;15.07;;;10.52;;
22111;SDS011;11222;50.872;4.312;2023-04-06T09:06:30;18.15;;;10.60;;
22111;SDS011;11222;50.872;4.312;2023-04-06T09:08:56;16.85;;;10.70;;
22111;SDS011;11222;50.872;4.312;2023-04-06T09:11:23;16.30;;;10.38;;
22111;SDS011;11222;50.872;4.312;2023-04-06T09:16:15;16.77;;;11.75;;
22111;SDS011;11222;50.872;4.312;2023-04-06T09:18:40;19.92;;;12.23;;
22111;SDS011;11222;50.872;4.312;2023-04-06T09:21:07;20.05;;;11.82;;
22111;SDS011;11222;50.872;4.312;2023-04-06T09:23:34;18.98;;;11.60;;
22111;SDS011;11222;50.872;4.312;2023-04-06T09:26:10;16.63;;;11.48;;
22111;SDS011;11222;50.872;4.312;2023-04-06T09:31:13;17.42;;;11.27;;
22111;SDS011;11222;50.872;4.312;2023-04-06T09:33:41;17.10;;;11.45;;
22111;SDS011;11222;50.872;4.312;2023-04-06T09:36:09;18.63;;;11.73;;
22111;SDS011;11222;50.872;4.312;2023-04-06T09:38:38;20.05;;;12.75;;
22111;SDS011;11222;50.872;4.312;2023-04-06T09:41:25;18.15;;;11.60;;
22111;SDS011;11222;50.872;4.312;2023-04-06T09:43:52;18.95;;;11.75;;
22111;SDS011;11222;50.872;4.312;2023-04-06T09:46:33;18.05;;;9.98;;
22111;SDS011;11222;50.872;4.312;2023-04-06T09:49:04;16.52;;;11.00;;
22111;SDS011;11222;50.872;4.312;2023-04-06T09:51:31;14.98;;;10.77;;
22111;SDS011;11222;50.872;4.312;2023-04-06T09:54:01;14.60;;;10.30;;
22111;SDS011;11222;50.872;4.312;2023-04-06T09:59:12;17.20;;;11.15;;
22111;SDS011;11222;50.872;4.312;2023-04-06T10:01:44;17.25;;;11.35;;
22111;SDS011;11222;50.872;4.312;2023-04-06T10:04:19;18.05;;;10.85;;
22111;SDS011;11222;50.872;4.312;2023-04-06T10:06:50;15.75;;;10.93;;
22111;SDS011;11222;50.872;4.312;2023-04-06T10:09:17;17.20;;;11.52;;
22111;SDS011;11222;50.872;4.312;2023-04-06T10:11:45;17.75;;;11.05;;
22111;SDS011;11222;50.872;4.312;2023-04-06T10:14:13;16.02;;;10.90;;
22111;SDS011;11222;50.872;4.312;2023-04-06T10:16:40;18.60;;;11.35;;
22111;SDS011;11222;50.872;4.312;2023-04-06T10:19:13;16.75;;;11.02;;
22111;SDS011;11222;50.872;4.312;2023-04-06T10:21:50;14.75;;;10.00;;
22111;SDS011;11222;50.872;4.312;2023-04-06T10:24:19;19.85;;;10.73;;
22111;SDS011;11222;50.872;4.312;2023-04-06T10:26:56;18.85;;;10.30;;
22111;SDS011;11222;50.872;4.312;2023-04-06T10:29:22;17.90;;;10.95;;
22111;SDS011;11222;50.872;4.312;2023-04-06T10:31:49;17.63;;;10.85;;
22111;SDS011;11222;50.872;4.312;2023-04-06T10:34:15;18.05;;;11.68;;
22111;SDS011;11222;50.872;4.312;2023-04-06T10:36:40;17.23;;;11.45;;
22111;SDS011;11222;50.872;4.312;2023-04-06T10:39:06;17.08;;;11.20;;
22111;SDS011;11222;50.872;4.312;2023-04-06T10:41:33;15.77;;;10.30;;
22111;SDS011;11222;50.872;4.312;2023-04-06T10:43:59;15.15;;;11.05;;
22111;SDS011;11222;50.872;4.312;2023-04-06T10:46:29;16.17;;;11.25;;
22111;SDS011;11222;50.872;4.312;2023-04-06T10:48:55;16.60;;;10.48;;
22111;SDS011;11222;50.872;4.312;2023-04-06T10:51:26;17.83;;;11.38;;
22111;SDS011;11222;50.872;4.312;2023-04-06T10:53:52;14.77;;;10.75;;
22111;SDS011;11222;50.872;4.312;2023-04-06T10:56:21;18.98;;;11.70;;
22111;SDS011;11222;50.872;4.312;2023-04-06T10:58:48;17.58;;;11.18;;
22111;SDS011;11222;50.872;4.312;2023-04-06T11:01:17;19.50;;;11.23;;
22111;SDS011;11222;50.872;4.312;2023-04-06T11:03:44;16.48;;;11.18;;
22111;SDS011;11222;50.872;4.312;2023-04-06T11:08:50;16.40;;;11.60;;
22111;SDS011;11222;50.872;4.312;2023-04-06T11:11:20;18.73;;;11.43;;
22111;SDS011;11222;50.872;4.312;2023-04-06T11:16:23;18.98;;;12.57;;
22111;SDS011;11222;50.872;4.312;2023-04-06T11:19:00;17.13;;;12.10;;
22111;SDS011;11222;50.872;4.312;2023-04-06T11:21:37;17.35;;;12.23;;
22111;SDS011;11222;50.872;4.312;2023-04-06T11:24:10;17.65;;;12.35;;
22111;SDS011;11222;50.872;4.312;2023-04-06T11:26:41;17.13;;;11.15;;
22111;SDS011;11222;50.872;4.312;2023-04-06T11:29:07;17.02;;;11.40;;
22111;SDS011;11222;50.872;4.312;2023-04-06T11:31:39;18.58;;;11.45;;
22111;SDS011;11222;50.872;4.312;2023-04-06T11:34:16;15.23;;;11.73;;
22111;SDS011;11222;50.872;4.312;2023-04-06T11:36:46;17.73;;;11.93;;
22111;SDS011;11222;50.872;4.312;2023-04-06T11:39:17;19.33;;;11.93;;
22111;SDS011;11222;50.872;4.312;2023-04-06T11:41:49;16.45;;;11.63;;
22111;SDS011;11222;50.872;4.312;2023-04-06T11:44:32;16.58;;;11.48;;
22111;SDS011;11222;50.872;4.312;2023-04-06T11:47:09;18.80;;;12.35;;
22111;SDS011;11222;50.872;4.312;2023-04-06T11:49:39;19.73;;;12.50;;
22111;SDS011;11222;50.872;4.312;2023-04-06T11:52:25;19.13;;;12.88;;
22111;SDS011;11222;50.872;4.312;2023-04-06T11:54:53;17.27;;;12.88;;
22111;SDS011;11222;50.872;4.312;2023-04-06T11:57:19;17.67;;;13.07;;
22111;SDS011;11222;50.872;4.312;2023-04-06T11:59:46;20.85;;;13.95;;
22111;SDS011;11222;50.872;4.312;2023-04-06T12:02:12;19.38;;;12.68;;
22111;SDS011;11222;50.872;4.312;2023-04-06T12:04:38;19.00;;;12.52;;
22111;SDS011;11222;50.872;4.312;2023-04-06T12:07:04;20.85;;;14.05;;
22111;SDS011;11222;50.872;4.312;2023-04-06T12:09:30;18.85;;;13.45;;
22111;SDS011;11222;50.872;4.312;2023-04-06T12:11:56;23.58;;;14.02;;
22111;SDS011;11222;50.872;4.312;2023-04-06T12:14:21;19.95;;;12.95;;
22111;SDS011;11222;50.872;4.312;2023-04-06T12:16:48;18.92;;;13.13;;
22111;SDS011;11222;50.872;4.312;2023-04-06T12:19:13;22.95;;;13.23;;
22111;SDS011;11222;50.872;4.312;2023-04-06T12:21:39;19.42;;;13.43;;
22111;SDS011;11222;50.872;4.312;2023-04-06T12:24:05;20.05;;;13.25;;
22111;SDS011;11222;50.872;4.312;2023-04-06T12:26:31;20.80;;;13.32;;
22111;SDS011;11222;50.872;4.312;2023-04-06T12:28:58;19.05;;;13.60;;
22111;SDS011;11222;50.872;4.312;2023-04-06T12:31:36;18.83;;;13.40;;
22111;SDS011;11222;50.872;4.312;2023-04-06T12:34:09;17.83;;;13.60;;
22111;SDS011;11222;50.872;4.312;2023-04-06T12:36:36;18.48;;;12.98;;
22111;SDS011;11222;50.872;4.312;2023-04-06T12:39:02;18.63;;;13.52;;
22111;SDS011;11222;50.872;4.312;2023-04-06T12:41:28;18.58;;;13.00;;
22111;SDS011;11222;50.872;4.312;2023-04-06T12:43:54;19.77;;;13.65;;
22111;SDS011;11222;50.872;4.312;2023-04-06T12:46:20;19.33;;;13.57;;
22111;SDS011;11222;50.872;4.312;2023-04-06T12:48:46;19.50;;;12.63;;
22111;SDS011;11222;50.872;4.312;2023-04-06T12:51:12;18.80;;;13.23;;
22111;SDS011;11222;50.872;4.312;2023-04-06T12:53:38;20.95;;;13.85;;
22111;SDS011;11222;50.872;4.312;2023-04-06T12:56:11;22.98;;;14.50;;
22111;SDS011;11222;50.872;4.312;2023-04-06T12:58:42;19.67;;;14.13;;
22111;SDS011;11222;50.872;4.312;2023-04-06T13:01:08;20.13;;;12.30;;
22111;SDS011;11222;50.872;4.312;2023-04-06T13:03:34;19.75;;;13.35;;
22111;SDS011;11222;50.872;4.312;2023-04-06T13:06:01;20.73;;;14.43;;
22111;SDS011;11222;50.872;4.312;2023-04-06T13:08:27;22.33;;;15.18;;
22111;SDS011;11222;50.872;4.312;2023-04-06T13:10:53;19.95;;;14.35;;
22111;SDS011;11222;50.872;4.312;2023-04-06T13:13:21;22.25;;;14.40;;
22111;SDS011;11222;50.872;4.312;2023-04-06T13:15:52;22.33;;;14.38;;
22111;SDS011;11222;50.872;4.312;2023-04-06T13:18:18;20.65;;;15.30;;
22111;SDS011;11222;50.872;4.312;2023-04-06T13:20:46;19.23;;;14.23;;
22111;SDS011;11222;50.872;4.312;2023-04-06T13:23:12;22.05;;;14.10;;
22111;SDS011;11222;50.872;4.312;2023-04-06T13:25:38;21.58;;;15.15;;
22111;SDS011;11222;50.872;4.312;2023-04-06T13:28:04;22.58;;;15.43;;
22111;SDS011;11222;50.872;4.312;2023-04-06T13:30:30;20.73;;;14.32;;
22111;SDS011;11222;50.872;4.312;2023-04-06T13:32:56;23.13;;;14.82;;
22111;SDS011;11222;50.872;4.312;2023-04-06T13:35:21;20.27;;;14.30;;
22111;SDS011;11222;50.872;4.312;2023-04-06T13:37:47;19.80;;;14.48;;
22111;SDS011;11222;50.872;4.312;2023-04-06T13:40:13;23.85;;;15.77;;
22111;SDS011;11222;50.872;4.312;2023-04-06T13:42:39;20.58;;;15.00;;
22111;SDS011;11222;50.872;4.312;2023-04-06T13:45:06;20.73;;;14.57;;
22111;SDS011;11222;50.872;4.312;2023-04-06T13:47:32;19.80;;;14.77;;
22111;SDS011;11222;50.872;4.312;2023-04-06T13:49:58;24.92;;;16.75;;
22111;SDS011;11222;50.872;4.312;2023-04-06T13:52:24;25.20;;;17.75;;
22111;SDS011;11222;50.872;4.312;2023-04-06T13:54:50;27.90;;;17.23;;
22111;SDS011;11222;50.872;4.312;2023-04-06T13:57:15;25.58;;;15.75;;
22111;SDS011;11222;50.872;4.312;2023-04-06T13:59:41;24.10;;;17.67;;
22111;SDS011;11222;50.872;4.312;2023-04-06T14:02:09;24.13;;;16.63;;
22111;SDS011;11222;50.872;4.312;2023-04-06T14:04:35;23.17;;;15.77;;
22111;SDS011;11222;50.872;4.312;2023-04-06T14:07:01;21.67;;;16.25;;
22111;SDS011;11222;50.872;4.312;2023-04-06T14:09:28;25.77;;;18.08;;
22111;SDS011;11222;50.872;4.312;2023-04-06T14:11:55;24.90;;;16.95;;
22111;SDS011;11222;50.872;4.312;2023-04-06T14:14:21;25.33;;;18.83;;
22111;SDS011;11222;50.872;4.312;2023-04-06T14:16:47;26.52;;;18.15;;
22111;SDS011;11222;50.872;4.312;2023-04-06T14:19:14;26.13;;;18.92;;
22111;SDS011;11222;50.872;4.312;2023-04-06T14:21:42;35.40;;;23.38;;
22111;SDS011;11222;50.872;4.312;2023-04-06T14:24:08;29.05;;;21.33;;
22111;SDS011;11222;50.872;4.312;2023-04-06T14:26:34;24.55;;;18.13;;
22111;SDS011;11222;50.872;4.312;2023-04-06T14:29:00;29.60;;;18.05;;
22111;SDS011;11222;50.872;4.312;2023-04-06T14:31:27;29.40;;;19.15;;